createdAt,value
2018-09-17T00:00:16.401Z,15.49
2018-09-17T00:02:45.006Z,15.52
2018-09-17T00:05:13.767Z,15.55
2018-09-17T00:07:42.364Z,15.56
2018-09-17T00:10:11.037Z,15.58
2018-09-17T00:12:39.670Z,15.53
2018-09-17T00:15:08.465Z,15.43
2018-09-17T00:17:37.032Z,15.40
2018-09-17T00:20:05.664Z,15.35
2018-09-17T00:22:34.209Z,15.26
2018-09-17T00:25:02.775Z,15.26
2018-09-17T00:27:31.564Z,15.27
2018-09-17T00:30:00.137Z,15.25
2018-09-17T00:32:28.764Z,15.27
2018-09-17T00:34:57.358Z,15.20
2018-09-17T00:37:25.974Z,15.03
2018-09-17T00:39:54.592Z,15.07
2018-09-17T00:42:23.162Z,15.06
2018-09-17T00:44:51.714Z,15.05
2018-09-17T00:47:20.308Z,15.12
2018-09-17T00:49:48.879Z,15.10
2018-09-17T00:52:17.427Z,15.13
2018-09-17T00:54:46.007Z,15.18
2018-09-17T00:57:18.576Z,15.17
2018-09-17T00:59:47.170Z,15.18
2018-09-17T01:02:15.766Z,15.19
2018-09-17T01:04:44.364Z,15.24
2018-09-17T01:07:13.028Z,15.26
2018-09-17T01:09:43.579Z,15.27
2018-09-17T01:12:13.784Z,15.21
2018-09-17T01:14:42.474Z,15.19
2018-09-17T01:17:11.110Z,15.18
2018-09-17T01:19:39.833Z,15.17
2018-09-17T01:22:08.410Z,15.18
2018-09-17T01:24:37.006Z,15.08
2018-09-17T01:27:06.554Z,14.94
2018-09-17T01:29:35.128Z,14.88
2018-09-17T01:32:03.809Z,14.78
2018-09-17T01:34:32.367Z,14.71
2018-09-17T01:37:00.968Z,14.62
2018-09-17T01:39:29.603Z,14.58
2018-09-17T01:41:58.174Z,14.56
2018-09-17T01:44:26.793Z,14.49
2018-09-17T01:46:55.385Z,14.48
2018-09-17T01:49:23.995Z,14.47
2018-09-17T01:51:52.542Z,14.49
2018-09-17T01:54:21.248Z,14.40
2018-09-17T01:56:49.809Z,14.30
2018-09-17T01:59:18.428Z,14.34
2018-09-17T02:01:47.043Z,14.44
2018-09-17T02:04:15.631Z,14.35
2018-09-17T02:06:44.221Z,14.40
2018-09-17T02:09:12.914Z,14.37
2018-09-17T02:11:41.668Z,14.43
2018-09-17T02:14:10.306Z,14.50
2018-09-17T02:19:29.406Z,14.48
2018-09-17T02:21:57.971Z,14.46
2018-09-17T02:24:26.591Z,14.45
2018-09-17T02:26:55.159Z,14.43
2018-09-17T02:29:23.772Z,14.42
2018-09-17T02:31:52.526Z,14.42
2018-09-17T02:34:21.108Z,14.34
2018-09-17T02:36:49.692Z,14.28
2018-09-17T02:39:18.262Z,14.30
2018-09-17T02:41:47.047Z,14.34
2018-09-17T02:44:15.629Z,14.36
2018-09-17T02:46:44.296Z,14.39
2018-09-17T02:49:13.225Z,14.38
2018-09-17T02:51:41.798Z,14.41
2018-09-17T02:54:10.352Z,14.42
2018-09-17T02:56:38.995Z,14.42
2018-09-17T02:59:07.642Z,14.39
2018-09-17T03:01:36.249Z,14.31
2018-09-17T03:04:04.826Z,14.22
2018-09-17T03:06:33.453Z,14.22
2018-09-17T03:09:02.045Z,14.22
2018-09-17T03:11:30.671Z,14.20
2018-09-17T03:13:59.231Z,14.23
2018-09-17T03:16:27.816Z,14.22
2018-09-17T03:18:57.653Z,14.28
2018-09-17T03:21:26.276Z,14.30
2018-09-17T03:23:55.145Z,14.34
2018-09-17T03:26:23.977Z,14.38
2018-09-17T03:28:52.545Z,14.42
2018-09-17T03:31:21.102Z,14.41
2018-09-17T03:33:49.757Z,14.43
2018-09-17T03:36:18.294Z,14.44
2018-09-17T03:38:48.801Z,14.40
2018-09-17T03:41:18.499Z,14.36
2018-09-17T03:43:51.057Z,14.28
2018-09-17T03:46:19.742Z,14.25
2018-09-17T03:48:48.531Z,14.23
2018-09-17T03:51:17.527Z,14.12
2018-09-17T03:53:46.830Z,14.10
2018-09-17T03:56:15.429Z,14.03
2018-09-17T03:58:43.988Z,13.98
2018-09-17T04:01:12.560Z,13.91
2018-09-17T04:03:41.125Z,13.85
2018-09-17T04:06:09.707Z,13.75
2018-09-17T04:08:38.303Z,13.74
2018-09-17T04:11:06.885Z,13.74
2018-09-17T04:13:35.512Z,13.71
2018-09-17T04:16:04.078Z,13.74
2018-09-17T04:18:32.643Z,13.81
2018-09-17T04:21:01.188Z,13.84
2018-09-17T04:23:37.337Z,13.86
2018-09-17T04:26:07.175Z,13.91
2018-09-17T04:28:36.223Z,13.93
2018-09-17T04:31:05.070Z,13.96
2018-09-17T04:33:39.177Z,13.98
2018-09-17T04:36:08.178Z,14.01
2018-09-17T04:38:36.733Z,14.04
2018-09-17T04:41:05.373Z,14.02
2018-09-17T04:43:33.972Z,14.00
2018-09-17T04:46:02.559Z,13.88
2018-09-17T04:48:31.363Z,13.69
2018-09-17T04:50:59.997Z,13.59
2018-09-17T04:53:28.780Z,13.54
2018-09-17T04:55:57.344Z,13.53
2018-09-17T04:58:26.009Z,13.59
2018-09-17T05:00:54.572Z,13.59
2018-09-17T05:03:30.366Z,13.55
2018-09-17T05:05:58.916Z,13.52
2018-09-17T05:08:27.529Z,13.51
2018-09-17T05:10:56.055Z,13.59
2018-09-17T05:13:24.782Z,13.64
2018-09-17T05:15:53.231Z,13.69
2018-09-17T05:18:21.793Z,13.72
2018-09-17T05:20:50.344Z,13.68
2018-09-17T05:23:18.932Z,13.70
2018-09-17T05:25:47.583Z,13.74
2018-09-17T05:28:16.961Z,13.86
2018-09-17T05:30:45.551Z,13.94
2018-09-17T05:33:14.137Z,14.00
2018-09-17T05:35:42.704Z,14.08
2018-09-17T05:38:11.304Z,14.15
2018-09-17T05:40:43.525Z,14.21
2018-09-17T05:43:12.250Z,14.24
2018-09-17T05:45:40.803Z,14.21
2018-09-17T05:48:09.364Z,14.24
2018-09-17T05:50:38.009Z,14.33
2018-09-17T05:53:06.816Z,14.39
2018-09-17T05:55:35.339Z,14.48
2018-09-17T05:58:03.909Z,14.58
2018-09-17T06:00:32.548Z,14.66
2018-09-17T06:03:01.105Z,14.72
2018-09-17T06:05:29.838Z,14.83
2018-09-17T06:07:58.713Z,14.91
2018-09-17T06:10:27.263Z,15.02
2018-09-17T06:12:55.849Z,15.12
2018-09-17T06:15:25.573Z,15.23
2018-09-17T06:17:54.131Z,15.40
2018-09-17T06:20:22.908Z,15.54
2018-09-17T06:22:51.526Z,15.69
2018-09-17T06:25:20.099Z,15.78
2018-09-17T06:27:48.634Z,15.86
2018-09-17T06:30:17.292Z,16.00
2018-09-17T06:32:45.872Z,16.13
2018-09-17T06:35:14.555Z,16.20
2018-09-17T06:37:43.182Z,16.29
2018-09-17T06:40:11.754Z,16.45
2018-09-17T06:42:40.316Z,16.58
2018-09-17T06:45:08.933Z,16.55
2018-09-17T06:47:37.523Z,16.67
2018-09-17T06:50:06.113Z,16.79
2018-09-17T06:52:34.743Z,16.80
2018-09-17T06:55:04.488Z,16.94
2018-09-17T06:57:33.055Z,17.06
2018-09-17T07:00:01.697Z,17.20
2018-09-17T07:02:30.302Z,17.37
2018-09-17T07:04:58.836Z,17.40
2018-09-17T07:07:27.419Z,17.54
2018-09-17T07:09:55.992Z,17.65
2018-09-17T07:12:24.560Z,17.75
2018-09-17T07:14:53.123Z,17.86
2018-09-17T07:23:16.947Z,18.14
2018-09-17T07:25:45.537Z,18.34
2018-09-17T07:28:14.090Z,18.52
2018-09-17T07:30:42.659Z,18.65
2018-09-17T07:33:11.292Z,18.78
2018-09-17T07:35:39.872Z,18.94
2018-09-17T07:38:08.436Z,19.07
2018-09-17T07:40:37.223Z,19.18
2018-09-17T07:43:05.918Z,19.29
2018-09-17T07:45:34.463Z,19.46
2018-09-17T07:48:03.393Z,19.51
2018-09-17T07:50:31.953Z,19.63
2018-09-17T07:53:00.532Z,19.76
2018-09-17T07:55:29.070Z,19.91
2018-09-17T07:57:57.624Z,20.03
2018-09-17T08:00:27.060Z,20.13
2018-09-17T08:02:55.593Z,20.14
2018-09-17T08:05:24.159Z,20.26
2018-09-17T08:07:52.716Z,20.12
2018-09-17T08:10:23.895Z,20.18
2018-09-17T08:12:52.991Z,20.29
2018-09-17T08:15:22.383Z,20.43
2018-09-17T08:17:52.100Z,20.61
2018-09-17T08:20:20.708Z,20.53
2018-09-17T08:22:49.343Z,20.50
2018-09-17T08:25:17.981Z,20.68
2018-09-17T08:27:46.564Z,20.76
2018-09-17T08:30:15.129Z,21.05
2018-09-17T08:32:43.706Z,20.94
2018-09-17T08:35:12.436Z,21.29
2018-09-17T08:37:41.004Z,21.27
2018-09-17T08:40:09.576Z,21.51
2018-09-17T08:42:38.147Z,21.68
2018-09-17T08:45:06.787Z,21.85
2018-09-17T08:47:35.456Z,22.07
2018-09-17T08:50:04.096Z,22.28
2018-09-17T08:52:32.660Z,22.53
2018-09-17T08:55:06.453Z,22.76
2018-09-17T08:59:47.811Z,22.59
2018-09-17T09:02:17.407Z,22.80
2018-09-17T09:04:51.040Z,22.98
2018-09-17T09:07:24.660Z,23.17
2018-09-17T09:09:57.544Z,23.40
2018-09-17T09:12:28.217Z,23.63
2018-09-17T09:15:00.880Z,23.84
2018-09-17T09:17:29.496Z,23.92
2018-09-17T09:19:58.024Z,24.16
2018-09-17T09:22:26.616Z,24.45
2018-09-17T09:24:55.969Z,24.77
2018-09-17T09:27:24.572Z,25.07
2018-09-17T09:29:53.195Z,25.32
2018-09-17T09:32:21.829Z,25.54
2018-09-17T09:34:50.588Z,25.57
2018-09-17T09:37:19.236Z,25.18
2018-09-17T09:39:47.791Z,26.01
2018-09-17T09:42:16.378Z,26.58
2018-09-17T09:44:44.976Z,27.11
2018-09-17T09:47:13.851Z,27.17
2018-09-17T09:49:42.755Z,26.95
2018-09-17T09:52:11.327Z,27.42
2018-09-17T09:54:40.018Z,27.55
2018-09-17T09:57:08.609Z,27.11
2018-09-17T09:59:37.179Z,27.30
2018-09-17T10:02:10.990Z,27.36
2018-09-17T10:04:39.608Z,27.44
2018-09-17T10:07:08.153Z,27.89
2018-09-17T10:09:41.712Z,27.70
2018-09-17T10:12:15.568Z,27.51
2018-09-17T10:14:49.197Z,27.75
2018-09-17T10:17:22.896Z,28.53
2018-09-17T10:19:52.652Z,28.96
2018-09-17T10:22:21.534Z,29.51
2018-09-17T10:24:50.070Z,29.59
2018-09-17T10:27:19.093Z,30.16
2018-09-17T10:29:47.801Z,30.52
2018-09-17T10:32:16.801Z,30.36
2018-09-17T10:34:45.435Z,30.89
2018-09-17T10:37:14.258Z,30.58
2018-09-17T10:39:42.814Z,30.96
2018-09-17T10:42:11.530Z,31.31
2018-09-17T10:44:40.098Z,31.62
2018-09-17T10:47:08.638Z,30.92
2018-09-17T10:49:37.237Z,31.60
2018-09-17T10:52:05.889Z,31.85
2018-09-17T10:54:34.479Z,31.46
2018-09-17T10:57:03.196Z,31.63
2018-09-17T10:59:31.786Z,32.02
2018-09-17T11:02:00.345Z,32.20
2018-09-17T11:04:29.136Z,32.13
2018-09-17T11:06:57.704Z,31.77
2018-09-17T11:09:26.261Z,31.45
2018-09-17T11:11:54.998Z,31.23
2018-09-17T11:14:23.580Z,30.58
2018-09-17T11:16:52.116Z,30.39
2018-09-17T11:19:20.782Z,30.29
2018-09-17T11:21:49.576Z,30.13
2018-09-17T11:24:19.342Z,29.87
2018-09-17T11:26:48.172Z,29.76
2018-09-17T11:29:16.860Z,29.69
2018-09-17T11:31:45.440Z,29.78
2018-09-17T11:34:14.040Z,29.78
2018-09-17T11:36:42.793Z,29.87
2018-09-17T11:39:12.012Z,29.88
2018-09-17T11:41:41.081Z,29.78
2018-09-17T11:44:09.696Z,29.67
2018-09-17T11:46:38.364Z,29.55
2018-09-17T11:49:06.914Z,29.34
2018-09-17T11:51:35.521Z,29.31
2018-09-17T11:54:04.159Z,29.08
2018-09-17T11:56:32.681Z,29.08
2018-09-17T11:59:01.227Z,29.34
2018-09-17T12:01:34.961Z,29.01
2018-09-17T12:04:08.697Z,29.12
2018-09-17T12:06:42.570Z,29.11
2018-09-17T12:09:11.702Z,29.19
2018-09-17T12:11:40.620Z,29.15
2018-09-17T12:14:09.460Z,29.42
2018-09-17T12:16:38.000Z,29.50
2018-09-17T12:19:06.701Z,29.49
2018-09-17T12:21:35.354Z,29.68
2018-09-17T12:24:03.915Z,29.78
2018-09-17T12:26:32.527Z,29.85
2018-09-17T12:29:01.071Z,29.96
2018-09-17T12:31:29.608Z,29.72
2018-09-17T12:33:58.246Z,29.80
2018-09-17T12:36:26.907Z,29.34
2018-09-17T12:38:55.456Z,29.65
2018-09-17T12:41:24.007Z,29.67
2018-09-17T12:43:52.599Z,29.75
2018-09-17T12:46:21.127Z,29.64
2018-09-17T12:48:49.673Z,29.89
2018-09-17T12:51:18.330Z,30.05
2018-09-17T12:53:46.988Z,30.11
2018-09-17T12:56:15.659Z,30.11
2018-09-17T12:58:44.249Z,30.18
2018-09-17T13:01:12.816Z,30.01
2018-09-17T13:03:41.372Z,29.82
2018-09-17T13:06:10.005Z,28.95
2018-09-17T13:08:38.608Z,29.18
2018-09-17T13:11:07.738Z,29.20
2018-09-17T13:13:38.503Z,28.96
2018-09-17T13:16:08.757Z,29.26
2018-09-17T13:18:37.459Z,29.38
2018-09-17T13:21:06.329Z,29.69
2018-09-17T13:23:35.012Z,29.96
2018-09-17T13:26:04.626Z,29.81
2018-09-17T13:28:33.233Z,30.13
2018-09-17T13:31:01.862Z,30.35
2018-09-17T13:33:30.463Z,30.32
2018-09-17T13:35:59.408Z,30.27
2018-09-17T13:38:27.934Z,29.89
2018-09-17T13:40:56.524Z,30.07
2018-09-17T13:43:25.096Z,30.22
2018-09-17T13:45:53.677Z,30.45
2018-09-17T13:48:22.261Z,30.70
2018-09-17T13:50:50.829Z,30.83
2018-09-17T13:53:19.504Z,30.30
2018-09-17T13:55:48.025Z,30.23
2018-09-17T13:58:17.050Z,30.14
2018-09-17T14:00:45.639Z,30.21
2018-09-17T14:03:14.186Z,29.88
2018-09-17T14:05:42.792Z,30.04
2018-09-17T14:08:11.426Z,30.28
2018-09-17T14:10:40.039Z,30.43
2018-09-17T14:13:08.567Z,29.87
2018-09-17T14:15:37.191Z,29.59
2018-09-17T14:20:57.323Z,29.00
2018-09-17T14:23:27.686Z,29.28
2018-09-17T14:25:57.592Z,29.41
2018-09-17T14:28:26.656Z,29.56
2018-09-17T14:30:55.206Z,29.28
2018-09-17T14:33:29.325Z,29.18
2018-09-17T14:35:58.040Z,29.44
2018-09-17T14:38:26.634Z,29.57
2018-09-17T14:40:55.486Z,29.46
2018-09-17T14:43:24.076Z,29.51
2018-09-17T14:45:52.632Z,29.37
2018-09-17T14:48:21.164Z,29.12
2018-09-17T14:50:49.745Z,29.23
2018-09-17T14:53:18.460Z,29.33
2018-09-17T14:55:46.985Z,29.45
2018-09-17T14:58:15.653Z,29.54
2018-09-17T15:00:44.216Z,29.68
2018-09-17T15:03:12.864Z,29.66
2018-09-17T15:05:41.437Z,29.58
2018-09-17T15:08:10.216Z,29.62
2018-09-17T15:10:38.780Z,29.70
2018-09-17T15:13:07.423Z,29.09
2018-09-17T15:15:40.506Z,29.25
2018-09-17T15:18:09.043Z,29.18
2018-09-17T15:20:37.612Z,29.51
2018-09-17T15:23:06.222Z,29.93
2018-09-17T15:25:34.749Z,29.72
2018-09-17T15:28:03.437Z,29.61
2018-09-17T15:30:31.938Z,29.65
2018-09-17T15:33:00.445Z,30.30
2018-09-17T15:35:29.137Z,30.36
2018-09-17T15:37:57.747Z,30.84
2018-09-17T15:40:26.540Z,32.80
2018-09-17T15:42:55.084Z,33.65
2018-09-17T15:45:23.667Z,34.98
2018-09-17T15:47:52.220Z,36.85
2018-09-17T15:50:20.895Z,37.52
2018-09-17T15:52:49.500Z,38.27
2018-09-17T15:55:18.035Z,38.48
2018-09-17T15:57:46.699Z,38.41
2018-09-17T16:00:15.323Z,38.49
2018-09-17T16:02:44.738Z,38.32
2018-09-17T16:05:13.745Z,38.32
2018-09-17T16:07:42.280Z,38.10
2018-09-17T16:10:10.861Z,37.92
2018-09-17T16:12:39.426Z,37.32
2018-09-17T16:15:08.057Z,36.07
2018-09-17T16:20:52.146Z,31.77
2018-09-17T16:23:20.679Z,30.42
2018-09-17T16:25:49.296Z,30.06
2018-09-17T16:28:17.876Z,29.55
2018-09-17T16:30:46.699Z,28.82
2018-09-17T16:33:15.414Z,28.18
2018-09-17T16:35:43.970Z,27.59
2018-09-17T16:38:12.531Z,27.15
2018-09-17T16:40:41.130Z,26.72
2018-09-17T16:43:09.844Z,26.36
2018-09-17T16:45:38.667Z,25.94
2018-09-17T16:48:07.241Z,25.51
2018-09-17T16:50:36.374Z,25.20
2018-09-17T16:53:05.013Z,24.95
2018-09-17T16:55:33.507Z,24.74
2018-09-17T16:58:02.076Z,24.50
2018-09-17T17:00:30.673Z,24.28
2018-09-17T17:02:59.356Z,24.13
2018-09-17T17:05:27.935Z,23.92
2018-09-17T17:07:56.673Z,23.58
2018-09-17T17:10:25.249Z,23.38
2018-09-17T17:12:54.037Z,23.19
2018-09-17T17:15:22.653Z,22.92
2018-09-17T17:17:51.260Z,22.74
2018-09-17T17:20:19.909Z,22.66
2018-09-17T17:22:48.468Z,22.58
2018-09-17T17:25:17.066Z,22.49
2018-09-17T17:27:45.690Z,22.32
2018-09-17T17:30:14.656Z,22.15
2018-09-17T17:32:43.307Z,21.99
2018-09-17T17:35:12.067Z,21.84
2018-09-17T17:37:41.529Z,21.70
2018-09-17T17:40:10.327Z,21.64
2018-09-17T17:42:38.812Z,21.47
2018-09-17T17:45:07.685Z,21.24
2018-09-17T17:47:36.232Z,20.95
2018-09-17T17:50:05.153Z,20.71
2018-09-17T17:52:33.774Z,20.56
2018-09-17T17:55:02.603Z,20.55
2018-09-17T17:57:31.228Z,20.49
2018-09-17T17:59:59.795Z,20.44
2018-09-17T18:02:28.399Z,20.38
2018-09-17T18:04:56.947Z,20.20
2018-09-17T18:07:25.507Z,20.12
2018-09-17T18:09:54.092Z,20.16
2018-09-17T18:12:22.672Z,20.25
2018-09-17T18:14:51.339Z,20.37
2018-09-17T18:17:19.800Z,20.39
2018-09-17T18:19:48.400Z,20.44
2018-09-17T18:22:17.394Z,20.40
2018-09-17T18:24:45.976Z,20.36
2018-09-17T18:27:14.935Z,20.30
2018-09-17T18:29:43.545Z,20.28
2018-09-17T18:32:12.166Z,20.25
2018-09-17T18:34:40.792Z,20.22
2018-09-17T18:37:14.353Z,20.18
2018-09-17T18:39:43.047Z,20.01
2018-09-17T18:42:12.171Z,19.94
2018-09-17T18:44:40.789Z,19.96
2018-09-17T18:47:09.338Z,19.96
2018-09-17T18:49:37.882Z,19.86
2018-09-17T18:52:06.652Z,19.85
2018-09-17T18:54:35.363Z,19.76
2018-09-17T18:57:03.975Z,19.77
2018-09-17T18:59:32.508Z,19.82
2018-09-17T19:02:07.474Z,19.85
2018-09-17T19:04:36.057Z,19.77
2018-09-17T19:07:04.664Z,19.74
2018-09-17T19:09:38.244Z,19.71
2018-09-17T19:12:07.165Z,19.68
2018-09-17T19:14:40.756Z,19.69
2018-09-17T19:17:14.608Z,19.66
2018-09-17T19:19:43.222Z,19.60
2018-09-17T19:22:17.122Z,19.65
2018-09-17T19:24:45.989Z,19.57
2018-09-17T19:27:14.613Z,19.49
2018-09-17T19:29:43.203Z,19.47
2018-09-17T19:32:11.762Z,19.43
2018-09-17T19:34:40.312Z,19.37
2018-09-17T19:37:14.108Z,19.33
2018-09-17T19:39:48.017Z,19.31
2018-09-17T19:42:16.838Z,19.28
2018-09-17T19:44:50.720Z,19.27
2018-09-17T19:50:14.573Z,19.33
2018-09-17T19:52:43.050Z,19.40
2018-09-17T19:55:12.443Z,19.44
2018-09-17T19:57:46.910Z,19.49
2018-09-17T20:00:15.516Z,19.50
2018-09-17T20:02:44.861Z,19.49
2018-09-17T20:05:18.675Z,19.49
2018-09-17T20:07:47.263Z,19.44
2018-09-17T20:10:15.881Z,19.39
2018-09-17T20:12:44.388Z,19.42
2018-09-17T20:15:13.004Z,19.44
2018-09-17T20:17:41.610Z,19.45
2018-09-17T20:20:10.291Z,19.42
2018-09-17T20:22:38.970Z,19.40
2018-09-17T20:25:07.496Z,19.25
2018-09-17T20:27:36.036Z,19.14
2018-09-17T20:30:04.776Z,19.10
2018-09-17T20:32:33.313Z,19.16
2018-09-17T20:35:01.869Z,19.15
2018-09-17T20:37:30.635Z,19.16
2018-09-17T20:39:59.408Z,19.18
2018-09-17T20:42:27.976Z,19.18
2018-09-17T20:44:56.790Z,19.13
2018-09-17T20:47:25.437Z,19.14
2018-09-17T20:49:54.031Z,19.09
2018-09-17T20:52:22.600Z,19.08
2018-09-17T20:54:51.289Z,19.08
2018-09-17T20:57:19.877Z,19.08
2018-09-17T20:59:48.516Z,19.05
2018-09-17T21:02:17.079Z,19.04
2018-09-17T21:04:45.649Z,19.02
2018-09-17T21:07:14.311Z,19.03
2018-09-17T21:09:42.964Z,19.01
2018-09-17T21:12:11.578Z,19.00
2018-09-17T21:14:40.081Z,18.98
2018-09-17T21:17:08.874Z,18.93
2018-09-17T21:19:37.577Z,18.93
2018-09-17T21:22:06.317Z,18.91
2018-09-17T21:24:34.917Z,18.92
2018-09-17T21:27:03.555Z,18.88
2018-09-17T21:29:32.240Z,18.86
2018-09-17T21:32:01.690Z,18.78
2018-09-17T21:34:30.811Z,18.72
2018-09-17T21:36:59.614Z,18.61
2018-09-17T21:39:28.163Z,18.54
2018-09-17T21:41:56.725Z,18.50
2018-09-17T21:44:25.343Z,18.49
2018-09-17T21:46:53.927Z,18.53
2018-09-17T21:49:22.483Z,18.53
2018-09-17T21:51:51.102Z,18.54
2018-09-17T21:54:19.784Z,18.50
2018-09-17T21:56:48.317Z,18.41
2018-09-17T21:59:16.933Z,18.36
2018-09-17T22:01:45.599Z,18.31
2018-09-17T22:04:14.272Z,18.28
2018-09-17T22:06:42.761Z,18.27
2018-09-17T22:09:11.429Z,18.28
2018-09-17T22:11:40.027Z,18.25
2018-09-17T22:14:09.635Z,18.27
2018-09-17T22:16:38.152Z,18.22
